Дата Время Давление Темп. Влажн. Скор.ветра Напр.ветра Макс.ветер Осадки/час Осадки
01.07.22 04:00 747.1 14.7 72.9 0.8 19 2.6 0 0
01.07.22 03:00 747.1 15.4 69.1 0.7 16 2.4 0 0
01.07.22 02:00 747.2 15.9 67.1 0.8 15 2.3 0 0
01.07.22 01:00 747 16.6 64.2 1 357 2.6 0 0
01.07.22 00:00 747.1 17.3 61.9 1.1 352 2.5 0 0
30.06.22 23:00 747.1 17.9 58.7 0.7 354 3.1 0 0
30.06.22 22:00 746.9 19.4 52.7 0.8 11 2.9 0 0
30.06.22 21:00 746.7 20.8 48 1.2 35 3.8 0 0
30.06.22 20:00 746.5 23.1 42.9 1.7 23 3.9 0 0
30.06.22 19:00 746.5 23.5 42.6 2 31 5 0 0
30.06.22 18:00 745.8 25.9 38.8 1.9 38 4.2 0 0
30.06.22 17:00 746.5 25.9 36.6 2 23 4.9 0 0
30.06.22 16:00 745.8 27 33.4 2 35 5.4 0 0
30.06.22 15:00 745.8 26.6 31.3 2.5 38 4.7 0 0
30.06.22 14:00 745.5 26.8 31.6 1.5 20 5.7 0 0
30.06.22 13:00 745.8 25.7 32.9 1.7 21 5.9 0 0
30.06.22 12:00 746.3 24.7 36.3 2.1 10 5.4 0 0
30.06.22 11:00 746.6 23.6 37.1 1.6 40 5.8 0 0
30.06.22 10:00 746.4 23.3 38.3 1.7 40 4.6 0 0
30.06.22 09:00 746.7 21.2 50 1.4 18 3.3 0 0
30.06.22 08:00 748.3 17.1 63.9 0.8 49 2.2 0 0
30.06.22 07:00 748.4 14.2 73.6 0.7 13 2.7 0 0
30.06.22 06:00 748.5 12.6 84.5 0.6 338 1.6 0 0
30.06.22 05:00 748.6 11.7 88.4 0.6 49 1.8 0 0